CheckWX is a tool to help pilots better visualize weather data.  It is not intended as a substitute for an official pre-flight weather briefing.

12:21:55 UTC

DNMM METAR
Murtala Muhammed International Airport
Lagos, Nigeria
Current

22 mins ago

DNMM 181200Z 21006KT 6000 HZ SCT014 33/26 Q1012 NOSIG
Observed
Feb-18 @ 12:00 UTC
Wind
  • 210° at 6 KTS
Visibility
6,003 meters
Flight Rules
MVFR
Conditions
Haze
Cloud Levels
  • Scattered at 1,400' AGL
Temperature
33°C / 91°F
Dewpoint
26°C / 79°F
Humidity
67%
Altimeter
29.88" Hg
Pressure
1011.92 hPa
Previous

2 hours ago

DNMM 181000Z 21004KT 4000 HZ SCT014 31/27 Q1014 TEMPO 5000 HZ
Observed
Feb-18 @ 10:00 UTC
Wind
  • 210° at 4 KTS
Visibility
4,007 meters
Flight Rules
IFR
Conditions
Haze
Cloud Levels
  • Scattered at 1,400' AGL
Temperature
31°C / 88°F
Dewpoint
27°C / 81°F
Humidity
79%
Altimeter
29.94" Hg
Pressure
1013.92 hPa
Previous

3 hours ago

DNMM 180900Z 03005KT 3000 HZ SCT013 30/27 Q1014 NOSIG
Observed
Feb-18 @ 09:00 UTC
Wind
  • 030° at 5 KTS
Visibility
2,993 meters
Flight Rules
IFR
Conditions
Haze
Cloud Levels
  • Scattered at 1,300' AGL
Temperature
30°C / 86°F
Dewpoint
27°C / 81°F
Humidity
84%
Altimeter
29.94" Hg
Pressure
1013.92 hPa